map of KGZS home
KGZS - Airport
Location
City:  Pulaski, Tennessee, United States
Name:Abernathy Field
ICAO:KGZS
FAA LID:GZS

Details
Type:Airport (Airfield)
Use:Public/Civil
Latitude:3509'15"N (35.154083)
Longitude:8703'25"W (-87.057055)
Datum:WGS 1984
Elevation:688 ft (210 m)
Variation:3.52W (WMM2015 magnetic declination)
-0.09 annual change
Runways:1
Longest:5310 × 75 ft (1618 × 23 m), paved

Time
Time Zone:UTC-6 (DST-5)
Local Time:

Weather
METAR:KGZS 210315Z AUTO 00000KT 9SM FEW055 08/08 A3017 RMK A01

Related Locations
Nearby:
Farthest:YAUG: 11181 mi / 17994 km
Augusta [Augusta Airport], WA, AU

Find:

   beyond  
but within

Other Information
Maps:
NOTAMs:
Links:
Sources:

  
  • flag of United States
  • flag of Tennessee
  

Sectional Chart

Flight Planning
at skyvector.com

Satellite Image

Google Maps Satellite view

 

Copyright © 2004-2018 Karl L. Swartz. All rights reserved.
The Great Circle Mapper name and logo are trademarks of the Great Circle Mapper.
All other trademarks mentioned herein belong to their respective owners.
Please see credits for attibutions and further copyright information.

  Follow gcmap on Facebook Follow gcmap on Twitter Follow gcmap on Google+ GCmap on LinkedIn

hCard Microformat

Geo Microformat